createdAt,value
2019-06-20T00:01:29.296Z,99.90
2019-06-20T00:03:58.604Z,99.90
2019-06-20T00:06:27.992Z,99.90
2019-06-20T00:08:57.579Z,99.90
2019-06-20T00:11:27.159Z,99.90
2019-06-20T00:13:56.549Z,99.90
2019-06-20T00:16:26.137Z,99.90
2019-06-20T00:18:55.511Z,99.90
2019-06-20T00:21:25.070Z,99.90
2019-06-20T00:23:54.393Z,99.90
2019-06-20T00:26:23.719Z,99.90
2019-06-20T00:28:53.028Z,99.90
2019-06-20T00:31:22.397Z,99.90
2019-06-20T00:33:51.995Z,99.90
2019-06-20T00:36:21.545Z,99.90
2019-06-20T00:38:50.859Z,99.90
2019-06-20T00:41:20.160Z,99.90
2019-06-20T00:43:49.734Z,99.90
2019-06-20T00:46:19.279Z,99.90
2019-06-20T00:48:48.824Z,99.90
2019-06-20T00:51:18.380Z,99.90
2019-06-20T00:53:47.693Z,99.90
2019-06-20T00:56:17.004Z,99.90
2019-06-20T00:58:46.323Z,99.90
2019-06-20T01:01:15.656Z,99.90
2019-06-20T01:03:45.239Z,99.90
2019-06-20T01:06:14.796Z,99.90
2019-06-20T01:08:44.355Z,99.90
2019-06-20T01:11:13.983Z,99.90
2019-06-20T01:13:44.267Z,99.90
2019-06-20T01:16:13.600Z,99.90
2019-06-20T01:18:43.163Z,99.90
2019-06-20T01:21:12.808Z,99.90
2019-06-20T01:23:42.131Z,99.90
2019-06-20T01:26:11.771Z,99.90
2019-06-20T01:28:41.109Z,99.90
2019-06-20T01:31:10.444Z,99.90
2019-06-20T01:33:40.029Z,99.90
2019-06-20T01:36:09.603Z,99.90
2019-06-20T01:38:39.175Z,99.90
2019-06-20T01:41:08.752Z,99.90
2019-06-20T01:43:50.016Z,99.90
2019-06-20T01:46:09.107Z,99.90
2019-06-20T01:48:38.439Z,99.90
2019-06-20T01:51:07.781Z,99.90
2019-06-20T01:53:37.107Z,99.90
2019-06-20T01:56:07.596Z,99.90
2019-06-20T01:58:37.022Z,99.90
2019-06-20T02:01:06.483Z,99.90
2019-06-20T02:03:35.806Z,99.90
2019-06-20T02:06:05.190Z,99.90
2019-06-20T02:08:34.524Z,99.90
2019-06-20T02:11:03.994Z,99.90
2019-06-20T02:13:33.349Z,99.90
2019-06-20T02:16:02.803Z,99.90
2019-06-20T02:18:32.379Z,99.90
2019-06-20T02:21:02.104Z,99.90
2019-06-20T02:23:31.522Z,99.90
2019-06-20T02:26:00.894Z,99.90
2019-06-20T02:28:30.230Z,99.90
2019-06-20T02:30:59.555Z,99.90
2019-06-20T02:33:29.122Z,99.90
2019-06-20T02:35:58.580Z,99.90
2019-06-20T02:38:28.116Z,99.90
2019-06-20T02:40:57.463Z,99.90
2019-06-20T02:43:27.054Z,99.90
2019-06-20T02:45:56.471Z,99.90
2019-06-20T02:48:25.866Z,99.90
2019-06-20T02:50:55.249Z,99.90
2019-06-20T02:53:24.582Z,99.90
2019-06-20T02:55:53.979Z,99.90
2019-06-20T02:58:23.327Z,99.90
2019-06-20T03:00:59.508Z,99.90
2019-06-20T03:03:29.517Z,99.90
2019-06-20T03:05:59.807Z,99.90
2019-06-20T03:08:29.286Z,99.90
2019-06-20T03:10:59.058Z,99.90
2019-06-20T03:13:28.692Z,99.90
2019-06-20T03:15:58.128Z,99.90
2019-06-20T03:18:27.454Z,99.90
2019-06-20T03:20:57.109Z,99.90
2019-06-20T03:23:26.526Z,99.90
2019-06-20T03:25:56.895Z,99.90
2019-06-20T03:28:26.565Z,99.90
2019-06-20T03:30:55.889Z,99.90
2019-06-20T03:33:25.501Z,99.90
2019-06-20T03:35:55.101Z,99.90
2019-06-20T03:38:24.685Z,99.90
2019-06-20T03:40:54.276Z,99.90
2019-06-20T03:43:23.620Z,99.90
2019-06-20T03:45:52.944Z,99.90
2019-06-20T03:48:22.619Z,99.90
2019-06-20T03:50:51.944Z,99.90
2019-06-20T03:53:21.542Z,99.90
2019-06-20T03:55:50.870Z,99.90
2019-06-20T03:58:20.245Z,99.90
2019-06-20T04:00:49.596Z,99.90
2019-06-20T04:03:19.900Z,99.90
2019-06-20T04:05:49.303Z,99.90
2019-06-20T04:08:18.656Z,99.90
2019-06-20T04:10:47.988Z,99.90
2019-06-20T04:13:17.585Z,99.90
2019-06-20T04:15:46.946Z,99.90
2019-06-20T04:18:16.323Z,99.90
2019-06-20T04:20:45.655Z,99.90
2019-06-20T04:23:15.237Z,99.90
2019-06-20T04:25:44.583Z,99.90
2019-06-20T04:28:14.192Z,99.90
2019-06-20T04:30:43.612Z,99.90
2019-06-20T04:33:13.220Z,99.90
2019-06-20T04:35:42.567Z,99.90
2019-06-20T04:38:12.150Z,99.90
2019-06-20T04:40:42.148Z,99.90
2019-06-20T04:43:11.744Z,99.90
2019-06-20T04:45:43.223Z,99.90
2019-06-20T04:48:12.810Z,99.90
2019-06-20T04:50:42.219Z,99.90
2019-06-20T04:53:11.558Z,99.90
2019-06-20T04:55:40.977Z,99.90
2019-06-20T04:58:10.359Z,99.90
2019-06-20T05:00:39.762Z,99.90
2019-06-20T05:03:09.082Z,99.90
2019-06-20T05:05:38.435Z,99.90
2019-06-20T05:08:08.142Z,99.90
2019-06-20T05:10:37.479Z,99.90
2019-06-20T05:13:06.974Z,99.90
2019-06-20T05:15:51.521Z,99.90
2019-06-20T05:18:07.355Z,99.90
2019-06-20T05:20:37.013Z,99.90
2019-06-20T05:23:06.745Z,99.90
2019-06-20T05:25:36.426Z,99.90
2019-06-20T05:28:06.143Z,99.90
2019-06-20T05:30:35.551Z,99.90
2019-06-20T05:33:04.880Z,99.90
2019-06-20T05:35:34.274Z,99.90
2019-06-20T05:38:03.681Z,99.90
2019-06-20T05:40:36.882Z,99.90
2019-06-20T05:43:05.364Z,99.90
2019-06-20T05:45:34.796Z,99.90
2019-06-20T05:48:05.227Z,99.90
2019-06-20T05:50:34.648Z,99.90
2019-06-20T05:53:04.234Z,99.90
2019-06-20T05:55:33.734Z,99.90
2019-06-20T05:58:03.145Z,99.90
2019-06-20T06:00:32.644Z,99.90
2019-06-20T06:03:06.845Z,99.50
2019-06-20T06:05:34.072Z,99.90
2019-06-20T06:08:03.827Z,98.30
2019-06-20T06:10:33.281Z,98.90
2019-06-20T06:13:03.167Z,98.30
2019-06-20T06:15:32.833Z,97.50
2019-06-20T06:18:02.452Z,96.90
2019-06-20T06:20:31.995Z,96.70
2019-06-20T06:23:01.407Z,96.80
2019-06-20T06:25:30.733Z,97.30
2019-06-20T06:28:00.437Z,97.70
2019-06-20T06:30:30.209Z,98.10
2019-06-20T06:32:59.560Z,98.10
2019-06-20T06:35:29.026Z,98.10
2019-06-20T06:37:58.438Z,96.70
2019-06-20T06:40:28.119Z,96.90
2019-06-20T06:42:57.931Z,97.20
2019-06-20T06:45:27.509Z,97.70
2019-06-20T06:47:57.037Z,97.10
2019-06-20T06:50:27.639Z,97.30
2019-06-20T06:52:57.450Z,97.80
2019-06-20T06:55:27.863Z,97.90
2019-06-20T06:57:57.856Z,97.70
2019-06-20T07:00:27.407Z,97.40
2019-06-20T07:02:56.924Z,97.30
2019-06-20T07:05:26.826Z,97.20
2019-06-20T07:07:56.251Z,96.80
2019-06-20T07:10:25.834Z,96.70
2019-06-20T07:12:55.322Z,96.30
2019-06-20T07:15:25.231Z,94.90
2019-06-20T07:17:55.092Z,94.80
2019-06-20T07:20:25.145Z,94.00
2019-06-20T07:22:54.708Z,93.50
2019-06-20T07:25:24.074Z,93.50
2019-06-20T07:27:53.598Z,92.90
2019-06-20T07:30:24.483Z,92.10
2019-06-20T07:32:54.135Z,92.40
2019-06-20T07:35:23.576Z,93.20
2019-06-20T07:37:53.382Z,94.00
2019-06-20T07:40:23.551Z,93.10
2019-06-20T07:42:53.407Z,93.40
2019-06-20T07:45:27.566Z,93.30
2019-06-20T07:47:57.194Z,93.10
2019-06-20T07:50:26.748Z,93.10
2019-06-20T07:53:01.925Z,92.10
2019-06-20T07:55:27.428Z,91.90
2019-06-20T07:57:57.821Z,91.70
2019-06-20T08:00:27.529Z,91.60
2019-06-20T08:02:57.055Z,92.10
2019-06-20T08:05:26.513Z,92.00
2019-06-20T08:07:55.937Z,92.10
2019-06-20T08:10:25.942Z,92.30
2019-06-20T08:12:55.416Z,92.60
2019-06-20T08:15:25.264Z,92.80
2019-06-20T08:17:54.952Z,92.50
2019-06-20T08:20:24.972Z,91.30
2019-06-20T08:22:54.684Z,89.30
2019-06-20T08:25:24.486Z,88.50
2019-06-20T08:27:53.913Z,89.00
2019-06-20T08:30:28.647Z,90.60
2019-06-20T08:33:01.248Z,90.80
2019-06-20T08:35:31.741Z,90.40
2019-06-20T08:38:03.501Z,90.30
2019-06-20T08:40:35.822Z,87.70
2019-06-20T08:43:06.405Z,88.40
2019-06-20T08:55:24.712Z,91.70
2019-06-20T08:57:55.734Z,91.90
2019-06-20T09:00:27.853Z,92.50
2019-06-20T09:02:58.618Z,91.60
2019-06-20T09:05:30.956Z,90.80
2019-06-20T09:10:33.820Z,86.70
2019-06-20T09:13:03.786Z,85.00
2019-06-20T09:15:33.418Z,81.40
2019-06-20T09:18:30.060Z,82.10
2019-06-20T09:21:00.287Z,80.60
2019-06-20T09:23:29.962Z,77.80
2019-06-20T09:25:59.681Z,76.50
2019-06-20T09:31:42.846Z,75.00
2019-06-20T09:34:12.461Z,72.90
2019-06-20T09:36:41.872Z,77.40
2019-06-20T09:39:11.258Z,77.00
2019-06-20T09:41:41.075Z,77.40
2019-06-20T09:44:10.487Z,76.60
2019-06-20T09:46:40.104Z,77.90
2019-06-20T09:49:09.808Z,76.80
2019-06-20T09:51:39.309Z,76.00
2019-06-20T09:54:08.823Z,73.80
2019-06-20T09:56:38.505Z,72.70
2019-06-20T09:59:07.989Z,71.10
2019-06-20T10:01:37.786Z,69.70
2019-06-20T10:04:07.511Z,67.40
2019-06-20T10:06:36.849Z,68.30
2019-06-20T10:09:08.800Z,68.30
2019-06-20T10:11:38.678Z,68.50
2019-06-20T10:14:09.545Z,68.40
2019-06-20T10:16:45.848Z,69.80
2019-06-20T10:19:12.665Z,65.30
2019-06-20T10:21:41.373Z,67.90
2019-06-20T10:24:10.838Z,65.30
2019-06-20T10:26:40.564Z,65.00
2019-06-20T10:29:10.391Z,67.30
2019-06-20T10:31:39.767Z,67.30
2019-06-20T10:34:09.504Z,67.60
2019-06-20T10:36:38.914Z,70.40
2019-06-20T10:39:11.389Z,72.60
2019-06-20T10:41:41.193Z,71.20
2019-06-20T10:44:10.608Z,71.70
2019-06-20T10:46:40.265Z,68.60
2019-06-20T10:49:10.051Z,70.10
2019-06-20T10:51:42.548Z,68.30
2019-06-20T10:54:12.688Z,68.90
2019-06-20T10:56:43.689Z,69.90
2019-06-20T10:59:13.543Z,68.60
2019-06-20T11:01:44.302Z,69.90
2019-06-20T11:04:13.838Z,68.70
2019-06-20T11:06:43.241Z,67.50
2019-06-20T11:09:13.845Z,66.90
2019-06-20T11:11:44.690Z,65.10
2019-06-20T11:14:14.294Z,64.40
2019-06-20T11:19:41.459Z,64.60
2019-06-20T11:22:11.035Z,66.40
2019-06-20T11:24:40.908Z,64.70
2019-06-20T11:27:10.459Z,66.50
2019-06-20T11:29:41.563Z,65.40
2019-06-20T11:32:11.298Z,65.50
2019-06-20T11:34:42.555Z,67.70
2019-06-20T11:37:12.277Z,65.90
2019-06-20T11:39:41.621Z,65.70
2019-06-20T11:42:11.767Z,63.90
2019-06-20T11:44:43.520Z,63.50
2019-06-20T11:50:21.105Z,60.60
2019-06-20T11:53:02.040Z,60.80
2019-06-20T11:55:38.964Z,58.40
2019-06-20T11:58:08.920Z,60.20
2019-06-20T12:00:38.847Z,59.40
2019-06-20T12:03:11.454Z,57.80
2019-06-20T12:05:44.865Z,55.30
2019-06-20T12:08:19.073Z,55.30
2019-06-20T12:10:49.491Z,55.10
2019-06-20T12:13:19.342Z,56.20
2019-06-20T12:15:51.090Z,57.70
2019-06-20T12:18:20.842Z,56.80
2019-06-20T12:21:02.716Z,58.10
2019-06-20T12:23:33.077Z,57.00
2019-06-20T12:26:02.802Z,57.50
2019-06-20T12:28:32.618Z,58.50
2019-06-20T12:31:18.622Z,59.30
2019-06-20T12:36:46.909Z,62.90
2019-06-20T12:39:25.906Z,63.70
2019-06-20T12:41:55.956Z,67.10
2019-06-20T12:44:27.554Z,68.20
2019-06-20T12:46:57.138Z,68.60
2019-06-20T12:49:26.667Z,70.00
2019-06-20T12:52:03.910Z,74.60
2019-06-20T12:55:06.453Z,75.30
2019-06-20T12:58:00.733Z,75.80
2019-06-20T13:00:41.618Z,78.60
2019-06-20T13:03:22.239Z,76.30
2019-06-20T13:06:16.575Z,74.50
2019-06-20T13:21:38.776Z,79.70
2019-06-20T15:00:22.338Z,70.80
2019-06-20T15:02:55.854Z,66.90
2019-06-20T15:05:23.689Z,65.60
2019-06-20T15:07:53.915Z,63.10
2019-06-20T15:10:24.243Z,58.80
2019-06-20T15:12:54.226Z,55.40
2019-06-20T15:15:24.832Z,52.50
2019-06-20T15:17:57.456Z,52.90
2019-06-20T15:20:25.563Z,55.50
2019-06-20T15:22:56.415Z,56.80
2019-06-20T15:25:26.217Z,58.40
2019-06-20T15:27:57.036Z,57.10
2019-06-20T15:30:27.145Z,58.70
2019-06-20T15:33:07.466Z,60.20
2019-06-20T15:35:27.971Z,64.50
2019-06-20T15:37:57.879Z,65.40
2019-06-20T15:40:27.632Z,66.90
2019-06-20T15:42:58.762Z,68.80
2019-06-20T15:45:28.912Z,70.30
2019-06-20T15:47:59.155Z,71.50
2019-06-20T15:50:28.976Z,74.20
2019-06-20T15:52:58.962Z,74.30
2019-06-20T15:55:30.234Z,74.80
2019-06-20T15:58:02.590Z,77.40
2019-06-20T16:00:33.482Z,79.80
2019-06-20T16:03:09.930Z,82.60
2019-06-20T16:05:34.631Z,88.00
2019-06-20T16:08:04.520Z,94.40
2019-06-20T16:10:34.148Z,98.10
2019-06-20T16:13:03.731Z,98.60
2019-06-20T16:15:34.191Z,99.90
2019-06-20T16:18:03.787Z,99.90
2019-06-20T16:20:33.401Z,99.90
2019-06-20T16:23:02.948Z,99.90
2019-06-20T16:25:32.688Z,99.90
2019-06-20T16:28:02.461Z,99.90
2019-06-20T16:30:33.729Z,99.90
2019-06-20T16:33:03.396Z,99.90
2019-06-20T16:35:42.946Z,99.90
2019-06-20T16:38:12.837Z,99.90
2019-06-20T16:40:45.230Z,99.90
2019-06-20T16:43:15.146Z,99.90
2019-06-20T16:45:44.849Z,99.90
2019-06-20T16:48:14.347Z,99.90
2019-06-20T16:50:44.057Z,97.20
2019-06-20T16:53:14.000Z,91.80
2019-06-20T16:55:44.001Z,92.60
2019-06-20T16:58:13.710Z,92.00
2019-06-20T17:00:43.599Z,94.30
2019-06-20T17:03:13.377Z,93.80
2019-06-20T17:05:43.347Z,93.80
2019-06-20T17:08:13.095Z,93.90
2019-06-20T17:10:42.929Z,94.50
2019-06-20T17:13:12.744Z,91.80
2019-06-20T17:15:42.300Z,91.70
2019-06-20T17:18:11.884Z,92.00
2019-06-20T17:21:03.976Z,91.40
2019-06-20T17:23:33.785Z,91.20
2019-06-20T17:26:03.373Z,92.20
2019-06-20T17:28:32.779Z,94.10
2019-06-20T17:31:02.231Z,92.40
2019-06-20T17:33:32.886Z,90.50
2019-06-20T17:36:17.347Z,90.30
2019-06-20T17:38:33.648Z,90.00
2019-06-20T17:41:13.059Z,91.30
2019-06-20T17:44:02.508Z,92.00
2019-06-20T17:46:52.353Z,92.70
2019-06-20T17:49:33.820Z,93.60
2019-06-20T17:55:42.072Z,94.50
2019-06-20T17:58:47.364Z,95.20
2019-06-20T18:02:58.335Z,96.00
2019-06-20T18:22:58.691Z,97.30
2019-06-20T18:25:31.560Z,97.60
2019-06-20T18:27:59.548Z,98.10
2019-06-20T18:30:34.794Z,98.50
2019-06-20T18:51:38.191Z,99.90
2019-06-20T18:54:07.948Z,99.90
2019-06-20T18:56:37.542Z,99.50
2019-06-20T18:59:07.213Z,99.70
2019-06-20T19:01:36.832Z,99.60
2019-06-20T19:04:06.272Z,99.60
2019-06-20T19:52:10.190Z,99.90
2019-06-20T19:54:40.396Z,99.90
2019-06-20T19:57:10.112Z,99.90
2019-06-20T19:59:39.516Z,99.90
2019-06-20T20:02:10.552Z,99.90
2019-06-20T20:04:40.346Z,99.90
2019-06-20T20:07:10.142Z,99.90
2019-06-20T20:09:39.584Z,99.90
2019-06-20T20:12:08.998Z,99.90
2019-06-20T20:14:38.600Z,99.90
2019-06-20T20:17:07.942Z,99.90
2019-06-20T20:19:37.559Z,99.90
2019-06-20T20:22:07.078Z,99.90
2019-06-20T20:24:36.426Z,99.90
2019-06-20T20:27:05.845Z,99.90
2019-06-20T20:29:36.198Z,99.90
2019-06-20T20:32:06.118Z,99.90
2019-06-20T20:34:35.718Z,99.90
2019-06-20T20:37:05.853Z,99.90
2019-06-20T20:39:35.483Z,99.90
2019-06-20T20:42:05.688Z,99.90
2019-06-20T20:44:35.002Z,99.90
2019-06-20T20:47:04.619Z,99.90
2019-06-20T20:49:34.216Z,99.90
2019-06-20T20:52:03.629Z,99.90
2019-06-20T20:54:33.295Z,99.90
2019-06-20T20:57:02.657Z,99.90
2019-06-20T20:59:32.283Z,99.90
2019-06-20T21:02:01.857Z,99.90
2019-06-20T21:04:31.269Z,99.90
2019-06-20T21:07:00.855Z,99.90
2019-06-20T21:09:30.436Z,99.90
2019-06-20T21:12:00.035Z,99.90
2019-06-20T21:14:29.454Z,99.90
2019-06-20T21:16:59.133Z,99.90
2019-06-20T21:19:28.884Z,99.90
2019-06-20T21:21:58.246Z,99.90
2019-06-20T21:24:28.584Z,99.90
2019-06-20T21:26:58.047Z,99.90
2019-06-20T21:29:27.777Z,99.90
2019-06-20T21:31:57.439Z,99.90
2019-06-20T21:34:26.866Z,99.90
2019-06-20T21:36:56.307Z,99.90
2019-06-20T21:39:25.894Z,99.90
2019-06-20T21:41:55.554Z,99.90
2019-06-20T21:44:25.137Z,99.90
2019-06-20T21:46:54.532Z,99.90
2019-06-20T21:49:24.132Z,99.90
2019-06-20T21:51:53.754Z,99.90
2019-06-20T21:54:23.092Z,99.90
2019-06-20T21:56:52.690Z,99.90
2019-06-20T21:59:22.044Z,99.90
2019-06-20T22:01:51.633Z,99.90
2019-06-20T22:04:21.054Z,99.90
2019-06-20T22:06:50.617Z,99.90
2019-06-20T22:09:20.289Z,99.90
2019-06-20T22:11:50.128Z,99.90
2019-06-20T22:14:19.467Z,99.90
2019-06-20T22:16:48.867Z,99.90
2019-06-20T22:19:18.285Z,99.90
2019-06-20T22:21:47.698Z,99.90
2019-06-20T22:24:17.111Z,99.90
2019-06-20T22:26:46.450Z,99.90
2019-06-20T22:29:16.830Z,99.90
2019-06-20T22:31:46.226Z,99.90
2019-06-20T22:34:15.848Z,99.90
2019-06-20T22:36:45.177Z,99.90
2019-06-20T22:39:14.780Z,99.90
2019-06-20T22:41:44.370Z,99.90
2019-06-20T22:44:14.047Z,99.90
2019-06-20T22:46:43.645Z,99.90
2019-06-20T22:49:13.545Z,99.90
2019-06-20T22:51:42.874Z,99.90
2019-06-20T22:54:12.210Z,99.90
2019-06-20T22:56:41.603Z,99.90
2019-06-20T22:59:11.254Z,99.90
2019-06-20T23:01:40.665Z,99.90
2019-06-20T23:04:11.181Z,99.90
2019-06-20T23:06:55.321Z,99.90
2019-06-20T23:09:11.819Z,99.90
2019-06-20T23:11:41.442Z,99.90
2019-06-20T23:14:11.777Z,99.90
2019-06-20T23:16:41.104Z,99.90
2019-06-20T23:19:10.457Z,99.90
2019-06-20T23:21:39.840Z,99.90
2019-06-20T23:24:09.267Z,99.90
2019-06-20T23:26:38.842Z,99.90
2019-06-20T23:29:09.823Z,99.90
2019-06-20T23:31:39.428Z,99.90
2019-06-20T23:34:08.759Z,99.90
2019-06-20T23:36:38.116Z,99.90
2019-06-20T23:39:07.839Z,99.90
2019-06-20T23:41:37.505Z,99.90
2019-06-20T23:44:06.953Z,99.90
2019-06-20T23:46:36.366Z,99.90
2019-06-20T23:49:05.791Z,99.90
2019-06-20T23:51:43.259Z,99.90
2019-06-20T23:54:12.674Z,99.90
2019-06-20T23:56:42.472Z,99.90
2019-06-20T23:59:11.907Z,99.90
